Time;durP1;ratioP1;P1;durP2;ratioP2;P2;SDS_P1;SDS_P2;PMS_P1;PMS_P2;Temp;Humidity;BMP_temperature;BMP_pressure;BME280_temperature;BME280_humidity;BME280_pressure;Samples;Min_cycle;Max_cycle;Signal;HPM_P1;HPM_P2
2023/05/09 00:01:58;;;;;;;15.98;12.77;;;333.30;2329.60;;;;;;5028611;28;20121;-63
2023/05/09 00:04:24;;;;;;;17.08;11.57;;;333.30;2329.60;;;;;;5030147;28;20097;-62
2023/05/09 00:06:50;;;;;;;16.85;11.75;;;333.30;2329.60;;;;;;5029660;28;20479;-61
2023/05/09 00:09:16;;;;;;;22.48;17.15;;;333.30;2329.60;;;;;;5029615;28;20094;-61
2023/05/09 00:11:42;;;;;;;22.73;17.42;;;333.30;2329.60;;;;;;5030334;28;20026;-63
2023/05/09 00:14:09;;;;;;;31.15;22.17;;;333.30;2329.60;;;;;;5029826;28;20479;-62
2023/05/09 00:16:35;;;;;;;15.38;10.63;;;333.30;2329.60;;;;;;5029762;28;20030;-63
2023/05/09 00:19:02;;;;;;;15.75;9.60;;;333.30;2329.60;;;;;;5029672;28;20083;-62
2023/05/09 00:21:28;;;;;;;37.47;25.58;;;333.20;2329.60;;;;;;5029802;28;20636;-62
2023/05/09 00:23:53;;;;;;;29.55;20.50;;;333.10;2329.60;;;;;;5029128;28;20047;-62
2023/05/09 00:26:20;;;;;;;18.58;14.23;;;333.10;2329.60;;;;;;5029823;28;20100;-62
2023/05/09 00:28:46;;;;;;;17.45;10.90;;;333.10;2329.60;;;;;;5029082;28;20083;-63
2023/05/09 00:31:12;;;;;;;29.15;20.63;;;333.10;2329.60;;;;;;5029702;28;20026;-63
2023/05/09 00:33:38;;;;;;;44.65;30.77;;;333.00;2329.60;;;;;;5029299;28;20026;-62
2023/05/09 00:36:03;;;;;;;41.65;28.55;;;333.00;2329.60;;;;;;5029416;28;20025;-62
2023/05/09 00:38:29;;;;;;;51.38;34.58;;;332.90;2329.60;;;;;;5029505;28;20538;-62
2023/05/09 00:40:55;;;;;;;41.05;27.80;;;332.90;2329.60;;;;;;5029065;28;20025;-61
2023/05/09 00:43:20;;;;;;;41.22;27.00;;;332.90;2329.60;;;;;;5029042;28;20036;-63
2023/05/09 00:45:46;;;;;;;48.22;31.42;;;332.80;2329.60;;;;;;5028950;28;20070;-62
2023/05/09 00:48:14;;;;;;;46.10;30.15;;;332.80;2329.60;;;;;;5028952;28;20056;-62
2023/05/09 00:50:40;;;;;;;21.63;13.32;;;332.80;2329.60;;;;;;5029734;28;20036;-61
2023/05/09 00:53:06;;;;;;;17.35;12.15;;;332.80;2329.60;;;;;;5028803;28;20833;-62
2023/05/09 00:55:33;;;;;;;23.52;15.15;;;308.10;2304.00;;;;;;5029630;28;20112;-63
2023/05/09 00:57:59;;;;;;;37.42;23.88;;;307.90;2304.00;;;;;;5029443;28;20022;-61
2023/05/09 01:00:25;;;;;;;29.70;21.67;;;307.90;2304.00;;;;;;5028944;28;20021;-60
2023/05/09 01:02:54;;;;;;;34.75;25.13;;;307.80;2304.00;;;;;;5028677;28;20510;-61
2023/05/09 01:05:21;;;;;;;47.85;32.63;;;307.80;2304.00;;;;;;5029191;28;20025;-60
2023/05/09 01:08:08;;;;;;;65.38;41.95;;;307.70;2304.00;;;;;;5027414;28;20426;-63
2023/05/09 01:10:44;;;;;;;42.95;26.92;;;307.70;2304.00;;;;;;5028984;28;20033;-60
2023/05/09 01:13:18;;;;;;;66.80;37.17;;;307.60;2304.00;;;;;;5029338;28;20357;-60
2023/05/09 01:15:57;;;;;;;61.67;35.33;;;307.60;2304.00;;;;;;5028748;28;20187;-60
2023/05/09 01:18:34;;;;;;;50.90;33.78;;;307.60;2304.00;;;;;;5028869;28;20023;-60
2023/05/09 01:21:10;;;;;;;22.83;13.48;;;307.60;2304.00;;;;;;5029153;28;20092;-63
2023/05/09 01:23:45;;;;;;;19.10;13.02;;;307.60;2304.00;;;;;;5028654;28;20034;-60
2023/05/09 01:26:48;;;;;;;21.80;11.93;;;307.60;2304.00;;;;;;5017164;28;20068;-60
2023/05/09 01:29:35;;;;;;;24.52;16.25;;;307.50;2304.00;;;;;;5028186;28;20475;-61
2023/05/09 01:32:06;;;;;;;39.28;22.40;;;307.50;2304.00;;;;;;5028361;28;20044;-60
2023/05/09 01:34:34;;;;;;;31.25;20.05;;;307.40;2304.00;;;;;;5029142;28;20038;-60
2023/05/09 01:37:02;;;;;;;31.23;16.88;;;307.30;2304.00;;;;;;5031921;28;20009;-61
2023/05/09 01:39:31;;;;;;;80.35;46.47;;;307.20;2304.00;;;;;;5038308;28;20064;-61
2023/05/09 01:42:01;;;;;;;73.70;42.45;;;307.20;2304.00;;;;;;5031240;28;20071;-61
2023/05/09 01:44:34;;;;;;;204.57;108.43;;;282.50;2278.40;;;;;;5032719;28;20025;-60
2023/05/09 01:47:01;;;;;;;72.20;38.03;;;282.50;2278.40;;;;;;5032735;28;20383;-61
2023/05/09 01:49:33;;;;;;;15.10;10.65;;;282.50;2278.40;;;;;;5032415;28;20044;-61
2023/05/09 01:52:03;;;;;;;36.65;22.17;;;282.40;2278.40;;;;;;5032481;28;20014;-63
2023/05/09 01:54:31;;;;;;;16.08;10.75;;;282.30;2278.40;;;;;;5032653;28;20080;-60
2023/05/09 01:56:57;;;;;;;28.50;19.42;;;282.20;2278.40;;;;;;5032365;28;20017;-60
2023/05/09 01:59:25;;;;;;;16.98;10.30;;;282.20;2278.40;;;;;;5031828;28;20479;-60
2023/05/09 02:01:53;;;;;;;16.83;10.52;;;281.90;2278.40;;;;;;5031863;28;20183;-61
2023/05/09 02:04:20;;;;;;;33.35;17.50;;;281.60;2278.40;;;;;;5031954;28;20073;-61
2023/05/09 02:06:50;;;;;;;109.90;54.25;;;256.90;2252.80;;;;;;5032089;28;20026;-61
2023/05/09 02:09:17;;;;;;;45.63;25.25;;;281.70;2278.40;;;;;;5031800;28;20483;-59
2023/05/09 02:11:45;;;;;;;15.65;9.73;;;281.70;2278.40;;;;;;5032469;28;20079;-60
2023/05/09 02:14:11;;;;;;;17.35;10.95;;;256.90;2252.80;;;;;;5031791;28;20022;-61
2023/05/09 02:16:38;;;;;;;15.90;10.20;;;256.60;2252.80;;;;;;5031789;28;20036;-60
2023/05/09 02:19:05;;;;;;;13.60;9.07;;;256.50;2252.80;;;;;;5031994;28;20033;-60
2023/05/09 02:21:31;;;;;;;21.23;9.48;;;256.40;2252.80;;;;;;5032161;28;20534;-60
2023/05/09 02:23:57;;;;;;;21.27;11.35;;;256.30;2252.80;;;;;;5031508;28;20033;-60
2023/05/09 02:26:25;;;;;;;12.75;9.35;;;256.30;2252.80;;;;;;5031667;28;20503;-62
2023/05/09 02:28:51;;;;;;;14.23;9.07;;;256.30;2252.80;;;;;;5031872;28;20079;-59
2023/05/09 02:31:19;;;;;;;12.13;9.15;;;256.20;2252.80;;;;;;5031447;28;20468;-61
2023/05/09 02:33:49;;;;;;;27.25;16.45;;;256.20;2252.80;;;;;;5031891;28;20033;-60
2023/05/09 02:36:15;;;;;;;48.70;26.92;;;256.40;2252.80;;;;;;5031639;28;20547;-61
2023/05/09 02:38:43;;;;;;;15.57;9.65;;;256.50;2252.80;;;;;;5031634;28;20022;-60
2023/05/09 02:41:15;;;;;;;15.18;9.93;;;256.70;2252.80;;;;;;5031679;28;20033;-60
2023/05/09 02:43:41;;;;;;;27.47;14.63;;;256.70;2252.80;;;;;;5031408;28;20030;-61
2023/05/09 02:46:07;;;;;;;30.85;16.45;;;256.80;2252.80;;;;;;5031223;28;20033;-62
2023/05/09 02:48:34;;;;;;;26.30;16.08;;;256.80;2252.80;;;;;;5031290;28;20073;-62
2023/05/09 02:51:00;;;;;;;30.63;16.10;;;256.70;2252.80;;;;;;5031382;28;20123;-61
2023/05/09 02:53:25;;;;;;;41.72;23.77;;;256.80;2252.80;;;;;;5029797;28;20076;-60
2023/05/09 02:55:52;;;;;;;98.32;46.10;;;256.80;2252.80;;;;;;5031592;28;20021;-61
2023/05/09 02:58:18;;;;;;;42.28;20.65;;;256.90;2252.80;;;;;;5031222;28;20017;-62
2023/05/09 03:00:44;;;;;;;20.83;13.50;;;256.90;2252.80;;;;;;5031333;28;20079;-61
2023/05/09 03:03:10;;;;;;;23.77;13.98;;;256.90;2252.80;;;;;;5030646;28;20045;-61
2023/05/09 03:05:36;;;;;;;21.75;15.50;;;256.90;2252.80;;;;;;5030925;28;20104;-62
2023/05/09 03:08:02;;;;;;;27.70;13.90;;;256.90;2252.80;;;;;;5031121;28;20454;-61
2023/05/09 03:10:27;;;;;;;49.45;28.52;;;256.90;2252.80;;;;;;5031082;28;20463;-61
2023/05/09 03:12:53;;;;;;;31.95;16.77;;;281.60;2278.40;;;;;;5031219;28;20053;-61
2023/05/09 03:15:20;;;;;;;17.63;12.30;;;281.60;2278.40;;;;;;5031190;28;20456;-61
2023/05/09 03:17:45;;;;;;;38.03;19.75;;;281.70;2278.40;;;;;;5030223;28;20033;-61
2023/05/09 03:20:11;;;;;;;32.88;20.60;;;281.70;2278.40;;;;;;5030889;28;20116;-61
2023/05/09 03:22:37;;;;;;;16.42;10.88;;;281.70;2278.40;;;;;;5030594;28;20349;-61
2023/05/09 03:25:03;;;;;;;50.70;27.88;;;281.60;2278.40;;;;;;5030801;28;20838;-60
2023/05/09 03:27:29;;;;;;;63.10;33.13;;;256.90;2252.80;;;;;;5030941;28;20029;-61
2023/05/09 03:29:55;;;;;;;82.50;43.40;;;281.60;2278.40;;;;;;5030748;28;20042;-61
2023/05/09 03:32:20;;;;;;;38.88;22.88;;;281.70;2278.40;;;;;;5030492;28;20029;-61
2023/05/09 03:34:46;;;;;;;22.70;15.02;;;281.80;2278.40;;;;;;5030476;28;20037;-61
2023/05/09 03:37:12;;;;;;;17.13;11.63;;;281.70;2278.40;;;;;;5029951;28;20482;-61
2023/05/09 03:39:38;;;;;;;11.63;8.48;;;281.60;2278.40;;;;;;5030240;28;20018;-61
2023/05/09 03:42:04;;;;;;;17.15;11.23;;;256.90;2252.80;;;;;;5030158;28;20491;-61
2023/05/09 03:44:30;;;;;;;12.50;10.15;;;256.90;2252.80;;;;;;5030797;28;20021;-61
2023/05/09 03:46:55;;;;;;;19.02;11.93;;;256.90;2252.80;;;;;;5030125;28;20360;-61
2023/05/09 03:49:21;;;;;;;14.77;10.48;;;256.70;2252.80;;;;;;5030336;28;20033;-61
2023/05/09 03:51:47;;;;;;;15.25;9.20;;;256.60;2252.80;;;;;;5029589;28;20026;-60
2023/05/09 03:54:12;;;;;;;15.02;9.70;;;256.60;2252.80;;;;;;5030235;28;20028;-60
2023/05/09 03:56:38;;;;;;;16.48;10.13;;;256.20;2252.80;;;;;;5029833;28;20021;-60
2023/05/09 03:59:04;;;;;;;14.88;9.93;;;256.60;2252.80;;;;;;5030242;28;20036;-61
2023/05/09 04:01:29;;;;;;;10.95;9.82;;;256.70;2252.80;;;;;;5029945;28;20053;-61
2023/05/09 04:03:58;;;;;;;33.95;19.00;;;256.80;2252.80;;;;;;5029487;28;20065;-60
2023/05/09 04:06:24;;;;;;;29.30;14.73;;;281.70;2278.40;;;;;;5029534;28;20029;-60
2023/05/09 04:08:50;;;;;;;14.25;8.88;;;282.00;2278.40;;;;;;5029736;28;20033;-60
2023/05/09 04:11:15;;;;;;;16.50;11.25;;;282.00;2278.40;;;;;;5029802;28;20030;-59
2023/05/09 04:13:41;;;;;;;12.00;8.48;;;282.20;2278.40;;;;;;5029894;28;20029;-60
2023/05/09 04:16:07;;;;;;;11.02;8.98;;;282.20;2278.40;;;;;;5029431;28;20021;-63
2023/05/09 04:18:33;;;;;;;13.27;9.35;;;282.50;2278.40;;;;;;5030048;28;20083;-63
2023/05/09 04:20:58;;;;;;;13.00;9.48;;;307.50;2304.00;;;;;;5029322;28;20024;-63
2023/05/09 04:23:24;;;;;;;13.00;9.98;;;307.40;2304.00;;;;;;5029454;28;20127;-62
2023/05/09 04:25:50;;;;;;;11.52;8.23;;;307.40;2304.00;;;;;;5029336;28;20021;-63
2023/05/09 04:28:16;;;;;;;15.45;10.75;;;307.50;2304.00;;;;;;5029530;28;20033;-62
2023/05/09 04:30:42;;;;;;;10.43;9.13;;;307.50;2304.00;;;;;;5029339;28;20109;-63
2023/05/09 04:33:07;;;;;;;14.35;8.57;;;307.50;2304.00;;;;;;5029232;28;20042;-59
2023/05/09 04:35:34;;;;;;;12.60;9.18;;;307.60;2304.00;;;;;;5029340;28;20033;-60
2023/05/09 04:38:00;;;;;;;12.55;9.13;;;307.70;2304.00;;;;;;5029409;28;20026;-60
2023/05/09 04:40:26;;;;;;;13.32;8.52;;;307.80;2304.00;;;;;;5028975;28;20033;-60
2023/05/09 04:42:51;;;;;;;17.00;9.50;;;307.80;2304.00;;;;;;5029654;28;20104;-59
2023/05/09 04:45:17;;;;;;;12.05;9.07;;;307.90;2304.00;;;;;;5028636;28;20478;-60
2023/05/09 04:47:44;;;;;;;15.38;9.25;;;307.90;2304.00;;;;;;5029257;28;20022;-60
2023/05/09 04:50:10;;;;;;;12.43;8.52;;;308.00;2304.00;;;;;;5029185;28;20030;-59
2023/05/09 04:52:36;;;;;;;21.55;15.55;;;333.00;2329.60;;;;;;5029097;28;20100;-60
2023/05/09 04:55:02;;;;;;;15.45;9.75;;;358.50;2329.60;;;;;;5029325;28;20120;-60
2023/05/09 04:57:28;;;;;;;13.88;10.10;;;384.10;2329.60;;;;;;5029120;28;20032;-60
2023/05/09 04:59:53;;;;;;;15.98;9.20;;;409.70;2355.20;;;;;;5028990;28;20480;-61
2023/05/09 05:02:20;;;;;;;19.90;9.25;;;410.20;2355.20;;;;;;5028954;28;20056;-60
2023/05/09 05:04:45;;;;;;;13.05;8.05;;;435.50;2355.20;;;;;;5029035;28;20221;-61
2023/05/09 05:07:11;;;;;;;9.48;7.80;;;435.80;2355.20;;;;;;5028740;28;20029;-60
2023/05/09 05:09:37;;;;;;;10.43;8.52;;;460.80;2380.80;;;;;;5028884;28;20125;-64
2023/05/09 05:12:05;;;;;;;14.98;10.30;;;461.00;2380.80;;;;;;5029604;28;20103;-61
2023/05/09 05:14:31;;;;;;;33.88;16.42;;;461.00;2380.80;;;;;;5028737;28;20049;-62
2023/05/09 05:16:57;;;;;;;25.00;12.02;;;436.10;2355.20;;;;;;5028373;28;20479;-60
2023/05/09 05:19:23;;;;;;;15.30;10.57;;;460.80;2380.80;;;;;;5028873;28;20040;-60
2023/05/09 05:21:49;;;;;;;12.48;8.85;;;436.10;2355.20;;;;;;5029041;28;20478;-62
2023/05/09 05:24:14;;;;;;;11.25;9.40;;;460.80;2380.80;;;;;;5028168;28;20025;-61
2023/05/09 05:26:40;;;;;;;12.15;9.27;;;460.90;2380.80;;;;;;5029067;28;20060;-61
2023/05/09 05:29:06;;;;;;;13.73;10.35;;;461.10;2380.80;;;;;;5028495;28;20040;-62
2023/05/09 05:31:31;;;;;;;15.45;12.50;;;436.00;2355.20;;;;;;5028862;28;20538;-61
2023/05/09 05:33:57;;;;;;;18.67;12.88;;;435.60;2355.20;;;;;;5028436;28;20537;-61
2023/05/09 05:36:23;;;;;;;23.92;15.98;;;435.90;2355.20;;;;;;5028642;28;20096;-60
2023/05/09 05:38:48;;;;;;;21.50;17.05;;;460.80;2380.80;;;;;;5028787;28;20025;-63
2023/05/09 05:41:14;;;;;;;21.98;15.45;;;486.60;2304.00;;;;;;5028701;28;20053;-61
2023/05/09 05:43:40;;;;;;;19.73;13.60;;;486.80;2201.60;;;;;;5028489;28;20026;-61
2023/05/09 05:46:06;;;;;;;19.35;12.85;;;486.60;2201.60;;;;;;5028258;28;20030;-59
2023/05/09 05:48:31;;;;;;;15.00;11.20;;;487.20;2150.40;;;;;;5028410;28;20434;-62
2023/05/09 05:50:57;;;;;;;13.02;10.85;;;537.70;2048.00;;;;;;5028556;28;20033;-61
2023/05/09 05:53:23;;;;;;;17.35;10.82;;;537.60;2048.00;;;;;;5028367;28;20030;-61
2023/05/09 05:55:48;;;;;;;14.88;10.45;;;512.90;1996.80;;;;;;5028647;28;20435;-68
2023/05/09 05:58:14;;;;;;;16.85;10.32;;;512.10;2073.60;;;;;;5028465;28;20022;-68
2023/05/09 06:00:40;;;;;;;16.17;10.82;;;486.70;2124.80;;;;;;5028422;28;20083;-69
2023/05/09 06:03:06;;;;;;;21.48;10.50;;;487.10;2099.20;;;;;;5027976;28;20068;-69
2023/05/09 06:05:32;;;;;;;15.35;10.18;;;538.40;1971.20;;;;;;5028558;28;20387;-69
2023/05/09 06:07:57;;;;;;;18.20;10.65;;;537.60;2022.40;;;;;;5039938;28;20163;-66
2023/05/09 06:10:23;;;;;;;12.98;9.75;;;512.70;1996.80;;;;;;5040255;28;20108;-68
2023/05/09 06:12:49;;;;;;;12.95;10.15;;;537.90;1971.20;;;;;;5028316;28;20028;-69
2023/05/09 06:15:14;;;;;;;14.40;8.60;;;564.10;1868.80;;;;;;5029305;28;20041;-69
2023/05/09 06:17:40;;;;;;;15.18;10.40;;;640.10;1689.60;;;;;;5036867;28;20061;-69
2023/05/09 06:20:06;;;;;;;17.77;9.80;;;614.70;1689.60;;;;;;5035369;28;20029;-69
2023/05/09 06:22:32;;;;;;;12.55;9.60;;;589.50;1766.40;;;;;;5047136;28;20422;-68
2023/05/09 06:24:58;;;;;;;16.17;10.18;;;563.30;1868.80;;;;;;5047892;28;20025;-69
2023/05/09 06:27:23;;;;;;;16.48;8.77;;;563.20;1868.80;;;;;;5050157;28;20035;-70
2023/05/09 06:29:51;;;;;;;10.38;9.10;;;563.60;1894.40;;;;;;5051943;28;20110;-69
2023/05/09 06:32:17;;;;;;;9.32;8.30;;;538.50;1868.80;;;;;;5051538;28;20055;-69
2023/05/09 06:34:43;;;;;;;14.50;8.38;;;512.80;1894.40;;;;;;5051682;28;20029;-69
2023/05/09 06:37:08;;;;;;;10.55;9.23;;;538.20;1894.40;;;;;;5051865;28;20025;-69
2023/05/09 06:39:34;;;;;;;12.05;9.30;;;538.20;1868.80;;;;;;5031241;28;20026;-69
2023/05/09 06:42:00;;;;;;;12.55;9.15;;;538.10;1868.80;;;;;;5031853;28;20037;-70
2023/05/09 06:44:26;;;;;;;15.88;10.68;;;538.10;1843.20;;;;;;5031721;28;20097;-70
2023/05/09 06:46:51;;;;;;;13.90;10.23;;;512.60;1945.60;;;;;;5031050;28;20025;-68
2023/05/09 06:49:17;;;;;;;17.63;9.65;;;512.90;1894.40;;;;;;5030915;28;20391;-69
2023/05/09 06:51:43;;;;;;;16.58;12.02;;;537.60;1894.40;;;;;;5030066;28;20439;-69
2023/05/09 06:54:08;;;;;;;14.27;10.70;;;538.10;1920.00;;;;;;5030919;28;20029;-70
2023/05/09 06:56:35;;;;;;;22.30;12.05;;;538.10;1894.40;;;;;;5030763;28;20032;-70
2023/05/09 06:59:01;;;;;;;12.73;10.60;;;537.80;1894.40;;;;;;5031245;28;20024;-68
2023/05/09 07:01:26;;;;;;;16.35;14.55;;;538.00;1868.80;;;;;;5030581;28;20030;-68
2023/05/09 07:03:52;;;;;;;16.70;11.88;;;563.60;1868.80;;;;;;5031239;28;20029;-71
2023/05/09 07:06:18;;;;;;;22.20;13.25;;;564.00;1792.00;;;;;;5030652;28;20072;-71
2023/05/09 07:08:43;;;;;;;17.05;10.75;;;564.00;1792.00;;;;;;5030965;28;20037;-71
2023/05/09 07:11:09;;;;;;;20.63;13.82;;;563.90;1792.00;;;;;;5031052;28;20387;-68
2023/05/09 07:13:35;;;;;;;15.35;11.02;;;564.10;1792.00;;;;;;5037708;28;20029;-68
2023/05/09 07:16:01;;;;;;;16.23;10.52;;;589.00;1740.80;;;;;;5051155;28;20021;-67
2023/05/09 07:18:26;;;;;;;27.85;16.40;;;588.80;1766.40;;;;;;5037751;28;20080;-69
2023/05/09 07:20:52;;;;;;;13.13;10.32;;;563.50;1843.20;;;;;;5031037;28;20017;-68
2023/05/09 07:23:18;;;;;;;15.82;10.27;;;563.90;1817.60;;;;;;5029509;28;20029;-69
2023/05/09 07:25:44;;;;;;;12.88;9.52;;;563.50;1817.60;;;;;;5049389;28;20073;-68
2023/05/09 07:28:11;;;;;;;12.00;10.45;;;563.80;1817.60;;;;;;5050823;28;20086;-69
2023/05/09 07:30:37;;;;;;;12.68;11.38;;;563.60;1817.60;;;;;;5050773;28;20032;-68
2023/05/09 07:33:03;;;;;;;12.65;10.68;;;563.80;1792.00;;;;;;5036098;28;20029;-69
2023/05/09 07:35:28;;;;;;;14.27;11.40;;;615.30;1638.40;;;;;;5030743;28;20116;-68
2023/05/09 07:37:54;;;;;;;18.90;12.07;;;589.70;1689.60;;;;;;5030037;28;20033;-68
2023/05/09 07:40:20;;;;;;;11.98;10.35;;;589.20;1740.80;;;;;;5030575;28;20022;-69
2023/05/09 07:42:48;;;;;;;21.08;12.63;;;589.10;1792.00;;;;;;5030336;28;20025;-68
2023/05/09 07:45:15;;;;;;;18.70;12.45;;;563.80;1817.60;;;;;;5030451;28;20025;-69
2023/05/09 07:47:40;;;;;;;19.80;11.98;;;564.00;1792.00;;;;;;5030668;28;20025;-69
2023/05/09 07:50:06;;;;;;;16.05;11.82;;;588.80;1766.40;;;;;;5030195;28;20399;-69
2023/05/09 07:52:32;;;;;;;15.35;10.57;;;563.90;1766.40;;;;;;5030653;28;20028;-69
2023/05/09 07:54:58;;;;;;;18.17;12.70;;;563.90;1766.40;;;;;;5030245;28;20033;-69
2023/05/09 07:57:24;;;;;;;15.77;11.00;;;563.50;1817.60;;;;;;5028246;28;20073;-66
2023/05/09 07:59:49;;;;;;;17.20;10.85;;;538.20;1843.20;;;;;;5030545;28;20022;-67
2023/05/09 08:02:15;;;;;;;16.25;11.25;;;589.20;1766.40;;;;;;5049338;28;20575;-66
2023/05/09 08:04:41;;;;;;;16.08;11.57;;;589.70;1740.80;;;;;;5049617;28;20379;-67
2023/05/09 08:07:07;;;;;;;16.75;12.35;;;563.50;1817.60;;;;;;5030197;28;20021;-67
2023/05/09 08:09:33;;;;;;;15.43;11.52;;;640.60;1612.80;;;;;;5029945;28;20052;-68
2023/05/09 08:11:59;;;;;;;14.30;11.35;;;640.20;1612.80;;;;;;5030013;28;20022;-68
2023/05/09 08:14:25;;;;;;;16.30;11.32;;;640.80;1561.60;;;;;;5029693;28;20040;-67
2023/05/09 08:16:50;;;;;;;23.00;14.57;;;640.60;1587.20;;;;;;5029929;28;20053;-66
2023/05/09 08:19:16;;;;;;;21.45;11.27;;;640.70;1638.40;;;;;;5029623;28;20108;-66
2023/05/09 08:21:41;;;;;;;11.55;10.45;;;589.70;1715.20;;;;;;5029922;28;20026;-65
2023/05/09 08:24:08;;;;;;;17.75;13.18;;;589.50;1715.20;;;;;;5029813;28;20017;-67
2023/05/09 08:26:34;;;;;;;17.10;11.68;;;564.10;1766.40;;;;;;5029367;28;20033;-67
2023/05/09 08:29:00;;;;;;;13.10;10.93;;;589.30;1792.00;;;;;;5029798;28;20046;-66
2023/05/09 08:31:26;;;;;;;13.98;10.30;;;588.90;1740.80;;;;;;5032072;28;20414;-67
2023/05/09 08:33:52;;;;;;;15.10;9.35;;;589.10;1766.40;;;;;;5049752;28;20032;-65
2023/05/09 08:36:18;;;;;;;10.55;8.73;;;563.60;1817.60;;;;;;5046261;28;20017;-67
2023/05/09 08:38:43;;;;;;;27.48;20.13;;;563.60;1817.60;;;;;;5029472;28;20038;-67
2023/05/09 08:41:09;;;;;;;15.00;10.80;;;563.60;1817.60;;;;;;5029538;28;20021;-67
2023/05/09 08:43:37;;;;;;;25.25;13.02;;;563.20;1868.80;;;;;;5028738;28;20033;-66
2023/05/09 08:46:09;;;;;;;16.83;10.35;;;563.60;1868.80;;;;;;5029736;28;20021;-67
2023/05/09 08:48:38;;;;;;;10.27;8.95;;;564.00;1817.60;;;;;;5029784;28;20452;-68
2023/05/09 08:51:05;;;;;;;20.35;13.35;;;563.20;1843.20;;;;;;5029619;28;20279;-66
2023/05/09 08:53:32;;;;;;;10.10;8.95;;;538.10;1868.80;;;;;;5029455;28;20032;-66
2023/05/09 08:56:00;;;;;;;16.52;9.93;;;563.20;1868.80;;;;;;5029280;28;20072;-66
2023/05/09 08:58:26;;;;;;;23.38;10.68;;;538.30;1868.80;;;;;;5030373;28;20360;-66
2023/05/09 09:00:54;;;;;;;12.77;8.05;;;538.50;1868.80;;;;;;5049291;28;20111;-67
2023/05/09 09:03:21;;;;;;;17.45;10.32;;;563.40;1843.20;;;;;;5048946;28;20535;-67
2023/05/09 09:05:48;;;;;;;12.60;9.60;;;563.30;1868.80;;;;;;5040133;28;20076;-67
2023/05/09 09:08:15;;;;;;;19.65;8.82;;;538.50;1843.20;;;;;;5028975;28;20612;-67
2023/05/09 09:10:45;;;;;;;12.38;8.75;;;563.30;1868.80;;;;;;5029171;28;20029;-66
2023/05/09 09:13:12;;;;;;;17.65;9.38;;;538.30;1843.20;;;;;;5027875;28;20040;-66
2023/05/09 09:15:40;;;;;;;12.98;9.30;;;537.90;1894.40;;;;;;5028943;28;20029;-66
2023/05/09 09:18:36;;;;;;;26.60;17.02;;;538.20;1868.80;;;;;;5028932;28;20030;-67
2023/05/09 09:21:08;;;;;;;20.25;10.38;;;563.60;1868.80;;;;;;5017977;28;20036;-66
2023/05/09 09:23:37;;;;;;;23.27;10.88;;;563.30;1894.40;;;;;;5028805;28;20036;-67
2023/05/09 09:26:03;;;;;;;12.48;9.93;;;563.90;1843.20;;;;;;5041674;28;20036;-66
2023/05/09 09:28:29;;;;;;;15.98;10.50;;;538.20;1920.00;;;;;;5048984;28;20475;-66
2023/05/09 09:30:55;;;;;;;16.35;8.95;;;563.80;1894.40;;;;;;5048428;28;20116;-68
2023/05/09 09:33:22;;;;;;;29.85;10.15;;;563.90;1894.40;;;;;;5028656;28;20064;-66
2023/05/09 09:35:49;;;;;;;21.42;9.88;;;563.90;1843.20;;;;;;5028693;28;20022;-67
2023/05/09 09:38:17;;;;;;;13.93;8.05;;;563.80;1843.20;;;;;;5028746;28;20083;-69
2023/05/09 09:40:56;;;;;;;13.32;8.65;;;563.80;1792.00;;;;;;5028612;28;20025;-66
2023/05/09 09:43:29;;;;;;;11.70;8.05;;;563.20;1868.80;;;;;;5028816;28;20033;-67
2023/05/09 09:45:56;;;;;;;11.48;8.90;;;564.10;1792.00;;;;;;5028285;28;20037;-67
2023/05/09 09:48:25;;;;;;;15.43;8.32;;;563.40;1843.20;;;;;;5028670;28;20049;-66
2023/05/09 09:50:54;;;;;;;7.68;6.43;;;563.70;1868.80;;;;;;5015813;28;20431;-68
2023/05/09 09:53:20;;;;;;;14.02;7.72;;;563.60;1792.00;;;;;;5029002;28;20048;-67
2023/05/09 09:55:50;;;;;;;13.93;7.85;;;538.50;1766.40;;;;;;5028434;28;20511;-67
2023/05/09 09:58:17;;;;;;;15.48;8.52;;;538.50;1817.60;;;;;;5028590;28;20525;-67
2023/05/09 10:00:44;;;;;;;15.23;9.10;;;563.30;1868.80;;;;;;5026811;28;20029;-68
2023/05/09 10:03:17;;;;;;;13.98;9.68;;;563.50;1868.80;;;;;;5029802;28;20218;-67
2023/05/09 10:05:43;;;;;;;13.50;9.60;;;563.70;1894.40;;;;;;5030869;28;20053;-67
2023/05/09 10:08:08;;;;;;;11.45;9.90;;;563.70;1817.60;;;;;;5030852;28;21331;-67
2023/05/09 10:10:35;;;;;;;19.33;9.70;;;563.70;1817.60;;;;;;5029613;28;20025;-67
2023/05/09 10:13:10;;;;;;;14.43;8.55;;;563.80;1792.00;;;;;;5030688;28;20022;-68
2023/05/09 10:15:36;;;;;;;11.57;9.57;;;563.40;1843.20;;;;;;5030634;28;20025;-68
2023/05/09 10:18:03;;;;;;;17.50;8.60;;;563.30;1792.00;;;;;;5030727;28;20113;-67
2023/05/09 10:20:30;;;;;;;10.60;7.63;;;538.10;1817.60;;;;;;5030469;28;20050;-68
2023/05/09 10:23:00;;;;;;;13.35;7.28;;;563.90;1766.40;;;;;;5030370;28;20025;-68
2023/05/09 10:25:46;;;;;;;15.68;9.27;;;564.00;1766.40;;;;;;5029957;28;20033;-67
2023/05/09 10:28:17;;;;;;;13.07;8.20;;;563.90;1740.80;;;;;;5030521;28;20025;-67
2023/05/09 10:30:52;;;;;;;22.00;9.98;;;564.10;1843.20;;;;;;5030099;28;20038;-65
2023/05/09 10:33:22;;;;;;;17.38;9.95;;;563.70;1792.00;;;;;;5030510;28;20157;-67
2023/05/09 10:35:49;;;;;;;22.67;10.52;;;564.00;1766.40;;;;;;5029840;28;20026;-66
2023/05/09 10:38:15;;;;;;;21.70;10.00;;;563.90;1740.80;;;;;;5030218;28;20424;-67
2023/05/09 10:40:45;;;;;;;15.45;8.70;;;563.90;1740.80;;;;;;5030487;28;20087;-66
2023/05/09 10:43:11;;;;;;;20.25;9.68;;;588.90;1715.20;;;;;;5030186;28;20022;-67
2023/05/09 10:45:38;;;;;;;8.82;7.05;;;589.00;1740.80;;;;;;5030142;28;20025;-67
2023/05/09 10:48:07;;;;;;;17.17;9.13;;;589.30;1715.20;;;;;;5031806;28;20029;-67
2023/05/09 10:50:39;;;;;;;12.18;7.03;;;589.00;1715.20;;;;;;5032148;28;20021;-65
2023/05/09 10:53:09;;;;;;;10.60;7.32;;;563.90;1715.20;;;;;;5031396;28;20486;-66
2023/05/09 10:55:45;;;;;;;9.85;7.53;;;589.10;1689.60;;;;;;5031564;28;20143;-66
2023/05/09 10:58:28;;;;;;;11.68;6.57;;;589.20;1715.20;;;;;;5031337;28;20018;-66
2023/05/09 11:00:55;;;;;;;9.90;6.57;;;589.10;1689.60;;;;;;5045531;28;20133;-66
2023/05/09 11:03:22;;;;;;;15.88;7.60;;;564.10;1715.20;;;;;;5050457;28;20369;-67
2023/05/09 11:05:50;;;;;;;12.65;6.68;;;588.80;1715.20;;;;;;5050329;28;20017;-66
2023/05/09 11:08:22;;;;;;;8.02;6.75;;;564.10;1715.20;;;;;;5050328;28;20040;-66
2023/05/09 11:10:48;;;;;;;10.10;6.40;;;563.60;1740.80;;;;;;5049907;28;20071;-67
2023/05/09 11:13:18;;;;;;;6.53;5.15;;;563.50;1715.20;;;;;;5030252;28;20029;-67
2023/05/09 11:16:03;;;;;;;11.95;6.70;;;563.60;1664.00;;;;;;5041626;28;20025;-67
2023/05/09 11:18:31;;;;;;;6.18;5.15;;;563.60;1715.20;;;;;;5051240;28;20393;-66
2023/05/09 11:20:58;;;;;;;11.48;6.93;;;563.50;1664.00;;;;;;5047777;28;20529;-67
2023/05/09 11:23:32;;;;;;;8.80;4.95;;;564.10;1664.00;;;;;;5032578;28;20071;-67
2023/05/09 11:26:05;;;;;;;7.22;4.40;;;563.60;1638.40;;;;;;5040176;28;20036;-68
2023/05/09 11:28:33;;;;;;;9.23;5.50;;;563.90;1612.80;;;;;;5046393;28;20091;-68
2023/05/09 11:31:12;;;;;;;7.70;5.60;;;564.10;1612.80;;;;;;5030704;28;20029;-67
2023/05/09 11:33:39;;;;;;;10.15;5.40;;;564.00;1587.20;;;;;;5030368;28;20025;-69
2023/05/09 11:36:28;;;;;;;9.38;4.93;;;563.80;1612.80;;;;;;5030642;28;20499;-68
2023/05/09 11:39:03;;;;;;;7.65;4.65;;;588.90;1587.20;;;;;;5020548;28;20369;-69
2023/05/09 11:41:30;;;;;;;6.75;4.45;;;563.40;1638.40;;;;;;5030435;28;20072;-69
2023/05/09 11:43:58;;;;;;;9.02;5.22;;;564.00;1587.20;;;;;;5030262;28;20028;-68
2023/05/09 11:46:25;;;;;;;8.05;5.10;;;564.00;1587.20;;;;;;5030004;28;20017;-69
2023/05/09 11:48:50;;;;;;;8.40;5.30;;;563.90;1612.80;;;;;;5028681;28;20045;-69
2023/05/09 11:51:19;;;;;;;5.82;4.93;;;563.80;1638.40;;;;;;5030193;28;20040;-69
2023/05/09 11:53:49;;;;;;;7.55;5.35;;;564.00;1612.80;;;;;;5030289;28;20368;-69
2023/05/09 11:56:15;;;;;;;9.52;4.72;;;588.80;1587.20;;;;;;5030133;28;20025;-69
2023/05/09 11:58:42;;;;;;;6.65;5.32;;;589.10;1561.60;;;;;;5031187;28;20551;-68
2023/05/09 12:01:10;;;;;;;10.45;6.05;;;614.40;1561.60;;;;;;5029837;28;20539;-68
2023/05/09 12:03:44;;;;;;;8.32;6.18;;;614.60;1561.60;;;;;;5029448;28;20140;-69
2023/05/09 12:06:17;;;;;;;6.93;5.13;;;589.40;1561.60;;;;;;5030929;28;20022;-68